Portoroz, Slovenia

8:00 PM CEST on September 05, 2015 (GMT +0200)
KPSS - LERA | | Change Station
CLOSE
Current Station
Personal Weather Station
Location: Portoroz, PRIMORSKA
Elevation: 15 ft
Nearby Weather Stations

Elev 15 ft 45.49 °N, 13.60 °E | Updated 5 minutes ago

Light Thunderstorms and Rain
Light Thunderstorm Rain
67.3 °F
Feels Like 67.3 °F
N
2.0
Wind Variable Wind from WSW
Gusts 13.0 mph

Today
High -- | Low -- °F
--% Chance of Precip.
Yesterday
High -- | Low -- °F
Precip. -- in
6:31 AM 7:36 PM
Waning Gibbous, 46% visible
Pressure 29.83 in
Visibility 5.6 miles
Clouds Few 3000 ft
Mostly Cloudy 4000 ft
Dew Point 61 °F
Humidity 80%
Rainfall 0.76 in
Snow Depth Not available.
UV 0.0 out of 12
Pollen Not available.
Air Quality Not available.
Flu Activity Not available.
METAR LIPQ 051750Z 11006KT 9000 -TSRA FEW030CB BKN040 19/15 Q1010
Pressure 29.83 in
Visibility 5.6 miles
Clouds Few 3000 ft
Mostly Cloudy 4000 ft
Dew Point 61 °F
Humidity 80%
Rainfall 0.76 in
Snow Depth Not available.
UV 0.0 out of 12
Pollen Not available.
Air Quality Not available.
Flu Activity Not available.
METAR LIPQ 051750Z 11006KT 9000 -TSRA FEW030CB BKN040 19/15 Q1010

10-Day Weather Forecast

×

Almanac

Astronomy

Sep. 05, 2015 Rise Set
Actual Time
Civil Twilight
Nautical Twilight
Astronomical Twilight
Moon
Length of Visible Light
Length of Day
Tomorrow will be .
, % of the Moon is Illuminated

Today's Extremes

Country Highs Country Lows

Community

WunderPhotos

Upload Photos

1,852,510 photos uploaded!

WunderBlogs® & News

Nearby

Air Quality

  Air Quality AQ Index Pollutant
Not available.

Snow Depth

Station Depth Elevation

Earthquake Activity

City Distance Mag. Time & Date
Minimum magnitude displayed is 2.5.

Coastal Water Temperatures

Place Temperature

Stations

Nearby Weather Stations

Station Location Temp. Windchill Dew Point Humidity Wind Precip. Elev Updated Type